Time;durP1;ratioP1;P1;durP2;ratioP2;P2;SDS_P1;SDS_P2;PMS_P1;PMS_P2;Temp;Humidity;BMP_temperature;BMP_pressure;BME280_temperature;BME280_humidity;BME280_pressure;Samples;Min_cycle;Max_cycle;Signal;HPM_P1;HPM_P2
2023/05/29 00:00:33;;;;;;;10.82;7.13;;;;;;;14.22;68.67;99192.66;6224075;22;20034;-81
2023/05/29 00:02:58;;;;;;;12.75;6.60;;;;;;;14.07;69.03;99189.94;6276306;22;20015;-81
2023/05/29 00:05:24;;;;;;;12.18;6.65;;;;;;;13.54;71.04;99199.84;6273645;22;20517;-81
2023/05/29 00:07:50;;;;;;;9.88;7.18;;;;;;;13.62;71.04;99205.81;6273832;22;20086;-82
2023/05/29 00:10:16;;;;;;;11.07;6.80;;;;;;;13.68;71.02;99202.06;6272575;22;20008;-81
2023/05/29 00:12:41;;;;;;;10.98;6.10;;;;;;;13.57;70.86;99189.66;6276387;22;20034;-80
2023/05/29 00:15:10;;;;;;;9.50;6.82;;;;;;;13.67;71.03;99200.47;6274545;22;20004;-81
2023/05/29 00:17:37;;;;;;;11.05;5.90;;;;;;;13.50;70.79;99192.59;6273186;22;20454;-81
2023/05/29 00:20:08;;;;;;;11.95;6.22;;;;;;;13.54;70.63;99189.13;6248475;22;20012;-80
2023/05/29 00:22:36;;;;;;;13.00;6.72;;;;;;;13.10;73.01;99206.53;6275663;22;20010;-80
2023/05/29 00:25:05;;;;;;;14.10;8.25;;;;;;;12.79;73.68;99186.66;6248425;22;20335;-81
2023/05/29 00:27:32;;;;;;;18.48;7.18;;;;;;;13.58;70.71;99185.94;6271711;22;20057;-83
2023/05/29 00:29:57;;;;;;;13.60;6.63;;;;;;;13.74;70.34;99193.00;6224081;22;20386;-81
2023/05/29 00:32:23;;;;;;;18.20;7.18;;;;;;;13.42;71.23;99185.84;6275943;22;20007;-81
2023/05/29 00:34:48;;;;;;;18.70;6.78;;;;;;;13.57;70.61;99187.00;6249093;22;20012;-81
2023/05/29 00:37:13;;;;;;;13.40;6.97;;;;;;;13.51;71.19;99196.88;6248628;22;20039;-82
2023/05/29 00:39:39;;;;;;;15.68;7.93;;;;;;;13.81;69.81;99196.25;6273771;22;20008;-82
2023/05/29 00:42:05;;;;;;;14.63;7.10;;;;;;;13.65;70.33;99189.19;6273725;22;20450;-81
2023/05/29 00:44:30;;;;;;;10.70;7.78;;;;;;;13.18;71.85;99200.69;6273403;22;19999;-81
2023/05/29 00:46:56;;;;;;;9.63;6.07;;;;;;;14.20;68.05;99192.13;6274051;22;20070;-82
2023/05/29 00:49:22;;;;;;;12.80;6.43;;;;;;;14.27;67.83;99209.63;6249439;22;20079;-82
2023/05/29 00:51:50;;;;;;;15.50;7.38;;;;;;;13.48;70.76;99200.91;6249867;22;20335;-81
2023/05/29 00:54:21;;;;;;;14.10;6.78;;;;;;;13.53;70.79;99202.81;6223558;22;20045;-82
2023/05/29 00:56:47;;;;;;;13.98;6.88;;;;;;;13.68;69.79;99215.50;6274800;22;20033;-82
2023/05/29 00:59:13;;;;;;;14.05;7.32;;;;;;;13.01;71.63;99215.25;6249356;22;20393;-82
2023/05/29 01:01:39;;;;;;;15.00;7.63;;;;;;;13.58;70.21;99204.72;6223598;22;20255;-82
2023/05/29 01:04:08;;;;;;;15.57;7.35;;;;;;;13.13;71.74;99227.44;6276470;22;20335;-82
2023/05/29 01:06:35;;;;;;;22.13;8.25;;;;;;;12.76;72.76;99232.69;6275972;22;20260;-82
2023/05/29 01:09:01;;;;;;;14.75;7.88;;;;;;;13.09;71.84;99228.19;6274725;22;20334;-82
2023/05/29 01:11:44;;;;;;;13.02;7.03;;;;;;;13.21;71.23;99229.66;6277798;22;20031;-82
2023/05/29 01:14:28;;;;;;;15.63;7.80;;;;;;;13.33;70.46;99230.28;6277078;22;20011;-82
2023/05/29 01:17:13;;;;;;;13.52;7.25;;;;;;;13.67;69.71;99224.63;6277441;22;20067;-82
2023/05/29 01:19:48;;;;;;;11.20;5.63;;;;;;;13.75;69.18;99229.50;6276019;22;20011;-82
2023/05/29 01:22:25;;;;;;;12.10;7.20;;;;;;;13.63;69.32;99229.69;6276794;22;20000;-81
2023/05/29 01:25:17;;;;;;;14.85;7.78;;;;;;;13.25;70.87;99227.28;6274376;22;20308;-81
2023/05/29 01:27:47;;;;;;;15.02;8.40;;;;;;;12.78;71.95;99233.25;6274657;22;20007;-81
2023/05/29 01:30:14;;;;;;;17.20;6.63;;;;;;;13.68;68.82;99215.50;6276786;22;20014;-82
2023/05/29 01:32:41;;;;;;;11.10;6.38;;;;;;;13.42;69.77;99230.63;6275049;22;20347;-82
2023/05/29 01:35:07;;;;;;;14.93;5.80;;;;;;;13.31;70.32;99223.56;6276678;22;20378;-82
2023/05/29 01:37:32;;;;;;;14.85;7.75;;;;;;;13.03;71.37;99235.38;6273751;22;20065;-81
2023/05/29 01:39:57;;;;;;;14.05;7.20;;;;;;;13.18;70.72;99235.53;6274142;22;20312;-82
2023/05/29 01:42:23;;;;;;;16.67;7.38;;;;;;;12.82;71.56;99238.91;6273722;22;20008;-83
2023/05/29 01:44:49;;;;;;;18.20;9.82;;;;;;;12.57;72.36;99242.16;6276574;22;20008;-81
2023/05/29 01:47:15;;;;;;;14.48;7.45;;;;;;;13.06;71.45;99242.91;6274586;22;20000;-81
2023/05/29 01:49:42;;;;;;;21.50;8.10;;;;;;;12.21;73.13;99247.34;6274759;22;20022;-82
2023/05/29 01:52:07;;;;;;;11.90;7.15;;;;;;;12.69;72.71;99245.47;6274290;22;20463;-81
2023/05/29 01:54:33;;;;;;;12.05;7.80;;;;;;;11.93;74.82;99251.78;6248703;22;20247;-82
2023/05/29 01:57:00;;;;;;;12.23;6.57;;;;;;;11.91;75.02;99248.56;6275377;22;20110;-81
2023/05/29 01:59:26;;;;;;;13.25;7.22;;;;;;;11.87;75.14;99239.41;6247983;22;20096;-81
2023/05/29 02:01:51;;;;;;;17.48;7.63;;;;;;;12.38;73.94;99251.56;6247651;22;20459;-81
2023/05/29 02:04:17;;;;;;;14.02;6.70;;;;;;;12.06;74.18;99244.47;6248703;22;20057;-81
2023/05/29 02:06:42;;;;;;;12.63;6.70;;;;;;;12.73;72.51;99253.84;6273716;22;20039;-82
2023/05/29 02:09:08;;;;;;;16.98;7.35;;;;;;;12.48;72.67;99253.53;6246918;22;20091;-81
2023/05/29 02:11:33;;;;;;;10.13;6.40;;;;;;;12.48;72.51;99240.97;6272160;22;20008;-81
2023/05/29 02:14:01;;;;;;;14.48;7.25;;;;;;;12.27;73.80;99249.00;6271410;22;20038;-82
2023/05/29 02:16:27;;;;;;;14.90;7.20;;;;;;;11.66;76.04;99245.50;6274338;22;20019;-81
2023/05/29 02:18:53;;;;;;;10.50;5.93;;;;;;;12.24;74.17;99244.16;6247548;22;20394;-81
2023/05/29 02:21:18;;;;;;;14.20;6.82;;;;;;;12.73;72.60;99259.97;6272873;22;20335;-81
2023/05/29 02:23:44;;;;;;;13.07;6.85;;;;;;;11.88;75.03;99259.72;6222528;22;20053;-80
2023/05/29 02:26:12;;;;;;;15.65;7.20;;;;;;;11.29;77.93;99263.88;6274469;22;20025;-81
2023/05/29 02:28:37;;;;;;;19.20;7.03;;;;;;;11.70;76.91;99264.56;6246130;22;20038;-81
2023/05/29 02:31:02;;;;;;;14.18;7.72;;;;;;;11.59;77.45;99260.09;6248120;22;20428;-80
2023/05/29 02:33:28;;;;;;;18.15;7.38;;;;;;;11.66;76.90;99263.41;6273358;22;20431;-80
2023/05/29 02:35:53;;;;;;;13.82;7.28;;;;;;;11.67;76.46;99262.38;6248274;22;20003;-82
2023/05/29 02:38:19;;;;;;;10.15;6.65;;;;;;;11.95;76.33;99270.25;6246515;22;20007;-82
2023/05/29 02:40:44;;;;;;;17.13;7.22;;;;;;;11.58;77.31;99277.16;6248783;22;20331;-81
2023/05/29 02:43:13;;;;;;;14.10;7.57;;;;;;;11.86;76.33;99256.50;6247290;22;20008;-81
2023/05/29 02:45:39;;;;;;;10.73;7.32;;;;;;;12.31;75.29;99282.25;6272607;22;20018;-82
2023/05/29 02:48:04;;;;;;;11.45;6.60;;;;;;;11.85;77.49;99276.28;6273497;22;20343;-81
2023/05/29 02:50:30;;;;;;;12.98;7.35;;;;;;;11.32;78.51;99275.97;6220570;22;20026;-82
2023/05/29 02:52:55;;;;;;;11.82;7.15;;;;;;;11.42;78.96;99292.19;6245757;22;20008;-82
2023/05/29 02:55:20;;;;;;;14.23;7.10;;;;;;;12.10;76.22;99293.75;6273709;22;20008;-81
2023/05/29 02:57:48;;;;;;;8.43;6.22;;;;;;;11.88;76.27;99291.84;6246606;22;20098;-81
2023/05/29 03:00:14;;;;;;;12.50;7.90;;;;;;;10.92;80.69;99297.44;6246185;22;20016;-81
2023/05/29 03:02:39;;;;;;;13.90;8.10;;;;;;;11.58;78.84;99291.34;6274061;22;20080;-81
2023/05/29 03:05:06;;;;;;;15.02;7.75;;;;;;;11.14;80.16;99297.56;6271950;22;20008;-81
2023/05/29 03:07:31;;;;;;;11.20;7.00;;;;;;;11.81;77.27;99279.69;6271545;22;20007;-81
2023/05/29 03:09:57;;;;;;;12.07;7.30;;;;;;;11.47;78.66;99278.06;6221883;22;20007;-82
2023/05/29 03:12:22;;;;;;;10.95;6.20;;;;;;;11.71;77.60;99280.34;6273756;22;20007;-81
2023/05/29 03:14:48;;;;;;;12.68;7.00;;;;;;;11.78;76.92;99290.88;6246358;22;20008;-82
2023/05/29 03:17:13;;;;;;;12.63;6.90;;;;;;;11.37;78.68;99288.59;6271897;22;20008;-81
2023/05/29 03:19:38;;;;;;;16.48;7.93;;;;;;;11.34;79.49;99295.22;6243046;22;20018;-82
2023/05/29 03:22:04;;;;;;;18.77;7.68;;;;;;;11.01;80.38;99292.50;6267696;22;20008;-81
2023/05/29 03:24:30;;;;;;;16.08;7.90;;;;;;;11.15;79.82;99289.31;6271522;22;20355;-82
2023/05/29 03:26:55;;;;;;;11.25;7.30;;;;;;;11.19;79.18;99292.31;6272762;22;20039;-81
2023/05/29 03:29:21;;;;;;;13.02;6.13;;;;;;;11.63;77.58;99296.78;6247060;22;20015;-82
2023/05/29 03:31:46;;;;;;;17.15;6.45;;;;;;;12.07;75.82;99286.22;6245768;22;20004;-82
2023/05/29 03:34:13;;;;;;;15.05;7.55;;;;;;;11.52;77.67;99302.22;6271642;22;20075;-82
2023/05/29 03:36:38;;;;;;;16.42;7.72;;;;;;;11.23;78.68;99298.78;6274416;22;20011;-82
2023/05/29 03:39:04;;;;;;;17.05;7.22;;;;;;;11.45;78.94;99296.22;6272268;22;20004;-82
2023/05/29 03:41:29;;;;;;;15.32;6.90;;;;;;;11.95;75.61;99280.97;6247736;22;20019;-82
2023/05/29 03:43:54;;;;;;;13.85;7.20;;;;;;;10.97;79.61;99296.72;6247132;22;20068;-81
2023/05/29 03:46:20;;;;;;;13.95;6.72;;;;;;;11.38;78.64;99295.59;6246840;22;20436;-82
2023/05/29 03:48:45;;;;;;;10.20;6.47;;;;;;;11.58;77.48;99287.84;6271398;22;20012;-82
2023/05/29 03:51:10;;;;;;;15.63;6.70;;;;;;;11.30;79.31;99299.44;6272846;22;20458;-81
2023/05/29 03:53:36;;;;;;;10.57;6.28;;;;;;;11.09;80.36;99303.66;6273208;22;20015;-81
2023/05/29 03:56:01;;;;;;;14.13;5.97;;;;;;;11.59;77.21;99292.16;6245201;22;20104;-82
2023/05/29 03:58:27;;;;;;;17.85;6.75;;;;;;;11.83;76.63;99302.47;6272009;22;20089;-81
2023/05/29 04:00:52;;;;;;;11.88;6.80;;;;;;;11.21;78.60;99296.38;6218750;22;20011;-81
2023/05/29 04:03:17;;;;;;;13.68;6.97;;;;;;;11.77;76.33;99297.31;6245577;22;20015;-81
2023/05/29 04:05:43;;;;;;;12.07;5.78;;;;;;;11.40;78.18;99304.94;6271123;22;20019;-82
2023/05/29 04:08:08;;;;;;;14.77;6.38;;;;;;;11.39;78.45;99306.03;6220665;22;20010;-81
2023/05/29 04:10:34;;;;;;;10.23;5.80;;;;;;;11.49;77.81;99324.09;6273615;22;20031;-81
2023/05/29 04:13:00;;;;;;;13.13;7.10;;;;;;;11.44;76.83;99327.50;6245800;22;20022;-81
2023/05/29 04:15:27;;;;;;;10.32;5.63;;;;;;;11.03;78.91;99319.81;6245647;22;20007;-81
2023/05/29 04:17:52;;;;;;;11.45;6.32;;;;;;;11.03;78.50;99322.50;6270855;22;20015;-81
2023/05/29 04:20:17;;;;;;;15.20;6.65;;;;;;;11.49;78.40;99332.91;6272875;22;20012;-81
2023/05/29 04:22:43;;;;;;;9.68;6.30;;;;;;;11.49;77.27;99326.78;6269548;22;20016;-82
2023/05/29 04:25:08;;;;;;;18.58;5.95;;;;;;;11.05;78.88;99328.41;6272164;22;20030;-81
2023/05/29 04:27:37;;;;;;;13.55;6.20;;;;;;;11.79;76.41;99338.78;6271430;22;20729;-81
2023/05/29 04:30:06;;;;;;;11.63;6.28;;;;;;;11.85;75.55;99345.84;6269588;22;20015;-82
2023/05/29 04:32:32;;;;;;;9.90;5.65;;;;;;;12.05;75.25;99342.66;6275131;22;20010;-81
2023/05/29 04:35:02;;;;;;;10.65;6.32;;;;;;;11.84;75.79;99333.50;6272388;22;20035;-81
2023/05/29 04:37:37;;;;;;;9.90;5.85;;;;;;;11.83;75.98;99336.44;6248260;22;20085;-81
2023/05/29 04:40:10;;;;;;;11.40;5.25;;;;;;;12.51;73.69;99333.38;6271917;22;20015;-82
2023/05/29 04:42:40;;;;;;;12.18;5.78;;;;;;;12.16;74.82;99346.28;6274163;22;20011;-81
2023/05/29 04:45:06;;;;;;;11.57;6.07;;;;;;;11.49;76.89;99340.13;6273406;22;20003;-81
2023/05/29 04:47:36;;;;;;;9.40;6.05;;;;;;;12.10;75.39;99350.72;6248553;22;20011;-81
2023/05/29 04:50:02;;;;;;;13.15;6.40;;;;;;;11.78;76.30;99344.38;6250330;22;20513;-81
2023/05/29 04:52:27;;;;;;;14.10;5.75;;;;;;;12.01;74.58;99350.34;6271925;22;20052;-81
2023/05/29 04:54:54;;;;;;;9.77;6.15;;;;;;;12.26;73.81;99351.75;6273635;22;20057;-82
2023/05/29 04:57:20;;;;;;;10.10;5.55;;;;;;;11.71;75.92;99363.25;6273896;22;20008;-82
2023/05/29 04:59:45;;;;;;;16.02;5.90;;;;;;;11.81;75.73;99352.72;6273463;22;20034;-81
2023/05/29 05:02:11;;;;;;;11.82;5.78;;;;;;;12.22;73.77;99350.63;6275206;22;20037;-83
2023/05/29 05:04:36;;;;;;;12.07;6.25;;;;;;;12.01;75.32;99371.75;6273645;22;20018;-81
2023/05/29 05:07:03;;;;;;;9.30;5.75;;;;;;;12.27;74.56;99359.56;6272950;22;20344;-81
2023/05/29 05:09:28;;;;;;;10.13;5.40;;;;;;;11.66;76.29;99368.50;6274754;22;20000;-81
2023/05/29 05:11:54;;;;;;;17.70;6.40;;;;;;;11.52;76.20;99358.34;6274291;22;20014;-82
2023/05/29 05:14:20;;;;;;;15.27;7.43;;;;;;;11.39;77.83;99359.47;6247980;22;20012;-81
2023/05/29 05:16:45;;;;;;;12.02;5.88;;;;;;;11.98;75.85;99366.09;6248981;22;20125;-82
2023/05/29 05:19:10;;;;;;;12.63;5.90;;;;;;;12.09;75.74;99369.72;6274370;22;20015;-81
2023/05/29 05:21:36;;;;;;;10.98;5.90;;;;;;;12.50;73.63;99370.03;6224486;22;20058;-81
2023/05/29 05:24:01;;;;;;;13.40;6.35;;;;;;;12.01;74.99;99368.28;6274176;22;20090;-81
2023/05/29 05:26:26;;;;;;;9.35;5.85;;;;;;;11.88;75.47;99377.44;6249800;22;20014;-81
2023/05/29 05:28:52;;;;;;;11.25;6.00;;;;;;;11.66;76.00;99384.56;6247796;22;20014;-81
2023/05/29 05:31:17;;;;;;;11.00;6.20;;;;;;;11.75;76.52;99379.63;6274441;22;20008;-82
2023/05/29 05:33:42;;;;;;;17.25;6.25;;;;;;;11.69;75.73;99392.09;6274210;22;20015;-81
2023/05/29 05:36:08;;;;;;;16.33;6.03;;;;;;;11.83;76.17;99382.72;6248601;22;20499;-81
2023/05/29 05:38:33;;;;;;;15.52;6.13;;;;;;;12.50;73.97;99383.44;6275128;22;20014;-81
2023/05/29 05:40:58;;;;;;;15.15;6.97;;;;;;;11.57;75.13;99393.19;6273344;22;20050;-80
2023/05/29 05:43:26;;;;;;;12.68;7.15;;;;;;;11.37;75.89;99379.47;6272531;22;20011;-82
2023/05/29 05:45:51;;;;;;;8.85;6.18;;;;;;;11.87;74.33;99391.06;6246657;22;20015;-80
2023/05/29 05:48:17;;;;;;;12.68;5.90;;;;;;;11.95;75.04;99391.47;6270718;22;20008;-81
2023/05/29 05:50:42;;;;;;;13.60;6.03;;;;;;;11.77;74.63;99386.34;6222190;22;20022;-80
2023/05/29 05:53:07;;;;;;;10.70;6.38;;;;;;;12.17;73.75;99380.81;6244972;22;20018;-81
2023/05/29 05:55:33;;;;;;;8.90;6.05;;;;;;;12.42;73.19;99378.50;6221101;22;20008;-80
2023/05/29 05:57:58;;;;;;;14.88;6.50;;;;;;;12.68;72.42;99393.03;6270833;22;20011;-80
2023/05/29 06:00:24;;;;;;;12.63;7.10;;;;;;;12.80;72.78;99391.84;6271379;22;20012;-80
2023/05/29 06:02:49;;;;;;;9.90;7.10;;;;;;;12.16;73.36;99389.91;6244559;22;20481;-80
2023/05/29 06:05:14;;;;;;;14.52;6.07;;;;;;;11.63;75.42;99384.19;6221493;22;20011;-80
2023/05/29 06:07:40;;;;;;;9.98;5.57;;;;;;;11.77;75.04;99390.91;6271197;22;20035;-80
2023/05/29 06:10:06;;;;;;;11.07;6.00;;;;;;;13.01;71.78;99387.56;6272755;22;20083;-81
2023/05/29 06:12:31;;;;;;;8.80;5.57;;;;;;;12.14;74.07;99391.22;6244979;22;20420;-81
2023/05/29 06:14:56;;;;;;;11.63;6.32;;;;;;;11.96;73.53;99393.09;6272160;22;20046;-81
2023/05/29 06:17:23;;;;;;;13.68;6.63;;;;;;;12.34;73.21;99400.31;6271144;22;20113;-80
2023/05/29 06:19:49;;;;;;;13.65;6.68;;;;;;;12.22;73.51;99383.56;6272619;22;20038;-81
2023/05/29 06:22:15;;;;;;;14.70;6.28;;;;;;;12.19;74.11;99389.41;6270485;22;20843;-80
2023/05/29 06:24:40;;;;;;;12.65;6.13;;;;;;;12.25;73.04;99392.97;6245695;22;20122;-81
2023/05/29 06:27:06;;;;;;;10.68;6.13;;;;;;;12.40;73.40;99390.53;6246161;22;20008;-80
2023/05/29 06:29:32;;;;;;;15.98;6.15;;;;;;;12.69;72.90;99395.47;6274516;22;20365;-81
2023/05/29 06:31:58;;;;;;;7.95;5.82;;;;;;;12.93;71.41;99393.34;6270839;22;20331;-81
2023/05/29 06:34:23;;;;;;;16.13;6.70;;;;;;;12.12;73.67;99406.69;6270305;22;20011;-81
2023/05/29 06:36:49;;;;;;;10.85;5.53;;;;;;;12.38;73.90;99403.34;6245581;22;20081;-80
2023/05/29 06:39:15;;;;;;;15.75;5.85;;;;;;;12.21;72.95;99397.22;6244682;22;20031;-81
2023/05/29 06:41:40;;;;;;;10.93;5.47;;;;;;;12.79;73.01;99414.34;6270412;22;20012;-81
2023/05/29 06:44:05;;;;;;;14.10;5.95;;;;;;;12.57;73.10;99400.13;6269722;22;20031;-81
2023/05/29 06:46:31;;;;;;;14.82;6.47;;;;;;;12.54;73.42;99405.16;6219846;22;20037;-80
2023/05/29 06:48:56;;;;;;;11.45;6.05;;;;;;;12.55;73.31;99404.13;6272032;22;20451;-80
2023/05/29 06:51:21;;;;;;;13.52;5.30;;;;;;;12.88;73.27;99422.78;6219938;22;20008;-81
2023/05/29 06:53:47;;;;;;;10.02;4.78;;;;;;;14.13;68.92;99415.19;6267513;22;20003;-81
2023/05/29 06:56:12;;;;;;;11.88;5.95;;;;;;;13.36;69.02;99409.44;6268880;22;20320;-81
2023/05/29 06:58:37;;;;;;;12.82;5.68;;;;;;;14.07;69.05;99410.84;6267928;22;20316;-81
2023/05/29 07:01:03;;;;;;;12.32;6.03;;;;;;;13.56;69.36;99421.41;6268080;22;20043;-81
2023/05/29 07:03:29;;;;;;;9.77;5.40;;;;;;;13.41;71.11;99425.53;6273093;22;20014;-81
2023/05/29 07:05:54;;;;;;;11.02;5.90;;;;;;;12.86;72.15;99432.94;6245642;22;20007;-81
2023/05/29 07:08:20;;;;;;;10.63;6.05;;;;;;;13.47;70.88;99423.75;6246083;22;20095;-81
2023/05/29 07:10:45;;;;;;;17.27;5.75;;;;;;;13.20;71.10;99438.97;6271385;22;20035;-81
2023/05/29 07:13:15;;;;;;;15.57;6.90;;;;;;;13.41;71.09;99438.16;6273364;22;20008;-81
2023/05/29 07:15:40;;;;;;;9.43;5.07;;;;;;;14.13;68.93;99433.19;6271934;22;20077;-81
2023/05/29 07:18:06;;;;;;;12.77;5.63;;;;;;;13.78;70.16;99435.56;6268465;22;20037;-81
2023/05/29 07:20:31;;;;;;;16.50;6.28;;;;;;;13.76;69.52;99440.38;6220592;22;20359;-81
2023/05/29 07:22:56;;;;;;;8.70;6.57;;;;;;;13.70;70.04;99442.19;6269098;22;20011;-81
2023/05/29 07:25:22;;;;;;;17.60;6.85;;;;;;;12.99;71.66;99435.22;6273402;22;20414;-80
2023/05/29 07:27:47;;;;;;;9.35;5.32;;;;;;;13.88;70.09;99435.66;6241521;22;20436;-81
2023/05/29 07:30:12;;;;;;;9.68;5.50;;;;;;;14.05;69.52;99430.97;6269901;22;20019;-81
2023/05/29 07:32:38;;;;;;;13.65;6.13;;;;;;;13.65;69.62;99434.09;6269762;22;20040;-80
2023/05/29 07:35:04;;;;;;;12.43;5.40;;;;;;;13.41;71.04;99441.63;6244538;22;20008;-81
2023/05/29 07:37:30;;;;;;;8.43;5.47;;;;;;;13.85;70.89;99428.91;6269764;22;20011;-81
2023/05/29 07:39:55;;;;;;;13.65;5.30;;;;;;;14.24;69.79;99429.53;6219712;22;20018;-81
2023/05/29 07:42:21;;;;;;;12.48;5.80;;;;;;;13.82;71.04;99431.31;6269220;22;20011;-81
2023/05/29 07:44:47;;;;;;;7.97;5.45;;;;;;;14.41;69.22;99435.56;6244648;22;20040;-80
2023/05/29 07:47:13;;;;;;;12.63;6.32;;;;;;;15.13;67.08;99433.00;6243749;22;20034;-81
2023/05/29 07:49:38;;;;;;;10.13;4.75;;;;;;;15.19;66.99;99425.72;6270779;22;20008;-81
2023/05/29 07:52:04;;;;;;;10.45;6.28;;;;;;;14.40;67.63;99420.50;6270058;22;20040;-80
2023/05/29 07:54:33;;;;;;;11.98;6.32;;;;;;;14.16;68.68;99438.84;6269926;22;20015;-81
2023/05/29 07:57:09;;;;;;;16.90;5.57;;;;;;;14.12;68.96;99421.63;6272677;22;20004;-81
2023/05/29 07:59:41;;;;;;;8.48;5.43;;;;;;;15.06;66.87;99434.28;6271333;22;20026;-81
2023/05/29 08:02:06;;;;;;;14.95;6.43;;;;;;;14.72;67.79;99434.66;6270912;22;20086;-81
2023/05/29 08:04:32;;;;;;;14.40;6.13;;;;;;;15.24;66.70;99429.25;6271803;22;20060;-81
2023/05/29 08:06:59;;;;;;;10.70;5.40;;;;;;;15.07;67.39;99433.22;6267437;22;20011;-81
2023/05/29 08:09:24;;;;;;;10.18;5.63;;;;;;;14.78;68.06;99447.09;6272870;22;20440;-80
2023/05/29 08:11:50;;;;;;;13.35;6.28;;;;;;;14.89;68.30;99445.25;6271518;22;20046;-80
2023/05/29 08:14:15;;;;;;;11.18;5.05;;;;;;;14.53;68.81;99449.59;6271165;22;20297;-80
2023/05/29 08:16:41;;;;;;;14.20;6.22;;;;;;;14.77;68.86;99447.31;6273094;22;20007;-80
2023/05/29 08:19:07;;;;;;;9.55;4.97;;;;;;;15.51;67.12;99454.09;6243601;22;20010;-80
2023/05/29 08:21:32;;;;;;;11.13;5.30;;;;;;;15.65;65.98;99451.72;6268015;22;20098;-81
2023/05/29 08:23:58;;;;;;;15.98;6.30;;;;;;;15.49;67.23;99452.75;6273614;22;20007;-80
2023/05/29 08:26:24;;;;;;;14.20;5.50;;;;;;;15.61;66.67;99453.34;6272279;22;20061;-81
2023/05/29 08:28:50;;;;;;;15.90;6.05;;;;;;;14.91;67.71;99451.97;6273501;22;20510;-80
2023/05/29 08:31:15;;;;;;;12.18;5.95;;;;;;;15.12;67.77;99442.13;6247753;22;20003;-80
2023/05/29 08:33:41;;;;;;;15.98;5.50;;;;;;;15.58;66.82;99462.75;6246753;22;20269;-80
2023/05/29 08:36:06;;;;;;;12.85;5.88;;;;;;;15.35;66.65;99447.06;6271032;22;20011;-81
2023/05/29 08:38:31;;;;;;;14.88;5.82;;;;;;;15.52;65.28;99454.91;6244647;22;20004;-81
2023/05/29 08:41:00;;;;;;;14.38;5.43;;;;;;;15.46;66.37;99447.91;6247244;22;20030;-81
2023/05/29 08:43:30;;;;;;;12.05;5.97;;;;;;;15.35;65.67;99454.31;6273852;22;20011;-81
2023/05/29 08:46:00;;;;;;;15.95;5.70;;;;;;;15.46;66.52;99451.41;6274105;22;20012;-81
2023/05/29 08:48:27;;;;;;;15.45;5.53;;;;;;;15.65;66.19;99451.72;6273868;22;20427;-81
2023/05/29 08:50:57;;;;;;;13.35;5.85;;;;;;;15.47;66.93;99465.66;6222014;22;20008;-81
2023/05/29 08:53:23;;;;;;;15.07;5.35;;;;;;;15.57;66.86;99450.34;6245898;22;20011;-81
2023/05/29 08:55:52;;;;;;;13.20;5.63;;;;;;;15.75;67.68;99454.41;6245621;22;20013;-81
2023/05/29 08:58:19;;;;;;;14.40;6.25;;;;;;;15.74;66.37;99456.31;6247195;22;20042;-81
2023/05/29 09:00:47;;;;;;;16.17;5.40;;;;;;;15.49;67.89;99455.44;6272651;22;20003;-80
2023/05/29 09:03:12;;;;;;;11.40;5.38;;;;;;;15.54;67.97;99455.47;6274299;22;20633;-80
2023/05/29 09:05:40;;;;;;;12.20;5.43;;;;;;;15.58;67.70;99467.31;6249095;22;20003;-80
2023/05/29 09:08:07;;;;;;;13.77;5.60;;;;;;;15.45;67.27;99462.44;6274965;22;20000;-81
2023/05/29 09:10:32;;;;;;;16.60;7.03;;;;;;;15.19;68.56;99456.13;6247526;22;20424;-81
2023/05/29 09:12:59;;;;;;;12.63;5.97;;;;;;;15.71;68.30;99445.25;6243738;22;20003;-81
2023/05/29 09:15:24;;;;;;;14.30;5.10;;;;;;;16.39;66.11;99450.13;6274057;22;20004;-81
2023/05/29 09:17:51;;;;;;;18.73;6.25;;;;;;;16.06;66.39;99453.38;6270769;22;20450;-81
2023/05/29 09:20:18;;;;;;;15.55;7.47;;;;;;;15.56;67.38;99456.81;6272881;22;19999;-81
2023/05/29 09:23:00;;;;;;;16.55;5.78;;;;;;;15.66;67.61;99456.03;6274045;22;20447;-81
2023/05/29 09:25:27;;;;;;;14.48;5.50;;;;;;;16.81;65.79;99466.00;6274647;22;20034;-82
2023/05/29 09:28:05;;;;;;;9.10;4.72;;;;;;;16.39;65.79;99452.84;6270752;22;20086;-81
2023/05/29 09:30:31;;;;;;;9.73;5.30;;;;;;;16.69;65.52;99464.66;6272849;22;20008;-82
2023/05/29 09:33:00;;;;;;;15.90;7.22;;;;;;;16.02;66.16;99448.78;6273239;22;20054;-82
2023/05/29 09:35:26;;;;;;;18.33;6.30;;;;;;;16.42;66.00;99468.44;6247028;22;20490;-81
2023/05/29 09:37:52;;;;;;;12.15;5.45;;;;;;;16.14;66.44;99454.75;6221748;22;20042;-81
2023/05/29 09:40:17;;;;;;;11.80;6.30;;;;;;;16.15;66.00;99469.81;6272275;22;20030;-81
2023/05/29 09:42:43;;;;;;;11.48;4.90;;;;;;;16.81;65.16;99471.38;6271429;22;20019;-81
2023/05/29 09:45:09;;;;;;;13.25;6.25;;;;;;;16.07;65.10;99475.72;6268525;22;20053;-81
2023/05/29 09:47:35;;;;;;;11.05;5.93;;;;;;;16.49;65.33;99477.06;6245665;22;20450;-80
2023/05/29 09:50:01;;;;;;;14.45;6.72;;;;;;;16.09;65.60;99478.97;6272619;22;20038;-80
2023/05/29 09:52:30;;;;;;;13.88;6.28;;;;;;;16.19;64.24;99473.56;6272596;22;20004;-80
2023/05/29 09:54:56;;;;;;;13.57;5.80;;;;;;;16.40;64.16;99475.19;6269179;22;20458;-80
2023/05/29 09:57:23;;;;;;;12.25;5.00;;;;;;;17.32;63.09;99463.91;6270207;22;20865;-81
2023/05/29 09:59:51;;;;;;;10.35;5.22;;;;;;;17.46;62.57;99464.94;6270094;22;20018;-80
2023/05/29 10:02:18;;;;;;;11.40;5.30;;;;;;;17.28;63.59;99460.16;6270228;22;20007;-81
2023/05/29 10:04:44;;;;;;;16.23;5.72;;;;;;;17.48;63.58;99465.44;6267087;22;20057;-80
2023/05/29 10:07:31;;;;;;;11.68;4.70;;;;;;;17.42;63.63;99452.25;6265240;22;20741;-81
2023/05/29 10:10:03;;;;;;;12.63;5.10;;;;;;;18.31;61.48;99460.03;6267235;22;20423;-80
2023/05/29 10:12:30;;;;;;;14.75;5.70;;;;;;;17.60;63.25;99459.75;6269503;22;20054;-80
2023/05/29 10:15:00;;;;;;;13.60;6.03;;;;;;;17.16;62.20;99440.78;6241809;22;20350;-80
2023/05/29 10:17:53;;;;;;;14.88;6.00;;;;;;;17.29;61.82;99455.56;6268841;22;20065;-81
2023/05/29 10:20:21;;;;;;;10.80;5.60;;;;;;;18.05;61.16;99464.03;6267582;22;19999;-81
2023/05/29 10:22:51;;;;;;;14.35;6.35;;;;;;;17.42;61.92;99465.75;6268505;22;20423;-81
2023/05/29 10:25:20;;;;;;;13.77;5.78;;;;;;;17.54;61.68;99474.38;6267723;22;20000;-81
2023/05/29 10:27:45;;;;;;;12.27;5.20;;;;;;;17.02;62.00;99466.72;6265754;22;20008;-80
2023/05/29 10:30:41;;;;;;;14.95;5.60;;;;;;;17.97;62.28;99450.03;6271053;22;20007;-81
2023/05/29 10:33:30;;;;;;;11.38;5.47;;;;;;;17.35;62.70;99441.78;6267677;22;20327;-81
2023/05/29 10:36:03;;;;;;;12.05;5.88;;;;;;;17.53;62.29;99454.66;6272174;22;20027;-81
2023/05/29 10:38:29;;;;;;;12.02;5.40;;;;;;;18.20;61.13;99455.81;6271926;22;20003;-80
2023/05/29 10:40:55;;;;;;;23.23;6.38;;;;;;;17.55;62.53;99455.19;6220099;22;20447;-80
2023/05/29 10:43:34;;;;;;;13.02;4.82;;;;;;;17.61;62.34;99454.06;6270637;22;20446;-80
2023/05/29 10:46:02;;;;;;;13.98;5.75;;;;;;;17.50;61.60;99446.28;6273425;22;20411;-81
2023/05/29 10:48:28;;;;;;;12.40;5.78;;;;;;;17.65;62.25;99444.31;6272628;22;20003;-81
2023/05/29 10:50:55;;;;;;;10.32;5.13;;;;;;;18.58;60.62;99447.66;6272167;22;20046;-81
2023/05/29 10:53:31;;;;;;;17.85;6.95;;;;;;;18.48;59.69;99442.34;6273004;22;20038;-81
2023/05/29 10:55:59;;;;;;;13.95;5.95;;;;;;;18.94;58.47;99448.06;6270804;22;20347;-81
2023/05/29 10:58:26;;;;;;;12.35;5.75;;;;;;;18.55;59.33;99442.81;6268860;22;20012;-80
2023/05/29 11:00:54;;;;;;;7.75;4.93;;;;;;;19.10;59.43;99446.00;6270802;22;20094;-80
2023/05/29 11:03:25;;;;;;;14.25;5.57;;;;;;;20.22;56.92;99436.03;6270717;22;20431;-81
2023/05/29 11:06:05;;;;;;;13.88;6.60;;;;;;;18.72;58.45;99446.97;6244658;22;20012;-81
2023/05/29 11:08:53;;;;;;;14.52;5.40;;;;;;;19.68;57.48;99444.69;6268254;22;20018;-80
2023/05/29 11:11:28;;;;;;;10.32;4.80;;;;;;;20.88;55.81;99436.41;6269359;22;20007;-81
2023/05/29 11:13:55;;;;;;;13.98;6.53;;;;;;;19.40;57.55;99430.19;6268715;22;20069;-80
2023/05/29 11:16:41;;;;;;;13.27;5.90;;;;;;;18.75;58.28;99446.41;6270684;22;20007;-81
2023/05/29 11:19:11;;;;;;;12.57;5.60;;;;;;;19.54;57.71;99443.00;6266598;22;20499;-80
2023/05/29 11:21:52;;;;;;;10.45;5.07;;;;;;;19.10;58.08;99446.81;6267661;22;20015;-81
2023/05/29 11:24:24;;;;;;;14.10;5.85;;;;;;;19.95;57.36;99435.88;6271441;22;20011;-81
2023/05/29 11:26:52;;;;;;;11.75;5.90;;;;;;;19.72;56.42;99421.38;6271700;22;20090;-81